createdAt,value
2022-12-31T00:01:49.553Z,11.14
2022-12-31T00:05:53.673Z,11.13
2022-12-31T00:09:57.362Z,11.13
2022-12-31T00:14:00.695Z,11.13
2022-12-31T00:18:05.172Z,11.18
2022-12-31T00:22:08.125Z,11.19
2022-12-31T00:26:12.638Z,11.23
2022-12-31T00:30:16.150Z,11.30
2022-12-31T00:34:20.877Z,11.33
2022-12-31T00:38:25.084Z,11.40
2022-12-31T00:42:28.662Z,11.43
2022-12-31T00:46:33.148Z,11.50
2022-12-31T00:50:37.581Z,11.52
2022-12-31T00:54:40.696Z,11.53
2022-12-31T00:58:44.739Z,11.60
2022-12-31T01:02:48.523Z,11.70
2022-12-31T01:06:53.572Z,11.86
2022-12-31T01:11:23.293Z,11.84
2022-12-31T01:15:26.825Z,11.83
2022-12-31T01:19:30.553Z,11.87
2022-12-31T01:23:35.822Z,11.87
2022-12-31T01:27:42.825Z,11.90
2022-12-31T01:31:46.164Z,11.98
2022-12-31T01:35:49.389Z,12.00
2022-12-31T01:39:55.092Z,12.02
2022-12-31T01:44:03.083Z,12.06
2022-12-31T01:48:06.691Z,12.00
2022-12-31T01:52:17.983Z,11.99
2022-12-31T01:56:23.198Z,11.80
2022-12-31T02:00:27.279Z,11.82
2022-12-31T02:04:32.869Z,11.82
2022-12-31T02:08:41.922Z,11.89
2022-12-31T02:12:47.241Z,11.81
2022-12-31T02:16:56.139Z,11.80
2022-12-31T02:21:19.925Z,11.76
2022-12-31T02:25:38.053Z,11.76
2022-12-31T02:29:59.209Z,11.81
2022-12-31T02:34:06.656Z,11.74
2022-12-31T02:38:13.257Z,11.77
2022-12-31T02:42:21.326Z,11.78
2022-12-31T02:46:31.327Z,11.77
2022-12-31T02:50:42.693Z,11.75
2022-12-31T02:54:52.569Z,11.75
2022-12-31T02:59:15.619Z,11.80
2022-12-31T03:03:20.265Z,11.75
2022-12-31T03:07:26.471Z,11.78
2022-12-31T03:11:49.076Z,11.75
2022-12-31T03:15:52.249Z,11.79
2022-12-31T03:20:12.783Z,11.79
2022-12-31T03:24:34.638Z,11.79
2022-12-31T03:28:38.521Z,11.88
2022-12-31T03:32:41.473Z,12.03
2022-12-31T03:36:47.567Z,12.16
2022-12-31T03:40:54.008Z,12.24
2022-12-31T03:45:03.441Z,12.07
2022-12-31T03:49:10.603Z,12.34
2022-12-31T03:53:13.826Z,12.43
2022-12-31T03:57:34.781Z,12.48
2022-12-31T04:01:41.028Z,12.48
2022-12-31T04:05:44.350Z,12.53
2022-12-31T04:09:48.113Z,12.48
2022-12-31T04:14:01.112Z,12.56
2022-12-31T04:18:05.670Z,12.55
2022-12-31T04:22:17.612Z,12.78
2022-12-31T04:26:20.976Z,12.64
2022-12-31T04:30:26.114Z,12.80
2022-12-31T04:34:30.037Z,12.81
2022-12-31T04:38:36.099Z,12.93
2022-12-31T04:42:44.677Z,12.88
2022-12-31T04:46:49.329Z,12.86
2022-12-31T04:50:53.383Z,12.96
2022-12-31T04:54:56.657Z,12.91
2022-12-31T04:59:00.336Z,12.84
2022-12-31T05:03:09.071Z,12.95
2022-12-31T05:07:12.556Z,13.05
2022-12-31T05:11:15.884Z,13.04
2022-12-31T05:15:19.074Z,13.00
2022-12-31T05:19:26.380Z,13.04
2022-12-31T05:23:30.156Z,13.03
2022-12-31T05:27:34.003Z,13.11
2022-12-31T05:31:36.987Z,12.99
2022-12-31T05:35:41.297Z,13.10
2022-12-31T05:39:45.209Z,13.19
2022-12-31T05:43:48.651Z,13.21
2022-12-31T05:47:55.760Z,13.18
2022-12-31T05:52:01.310Z,13.22
2022-12-31T05:56:04.777Z,13.19
2022-12-31T06:00:09.068Z,13.12
2022-12-31T06:04:12.336Z,13.30
2022-12-31T06:08:17.140Z,13.14
2022-12-31T06:12:20.201Z,13.11
2022-12-31T06:16:26.803Z,13.09
2022-12-31T06:20:33.845Z,13.07
2022-12-31T06:24:37.987Z,13.15
2022-12-31T06:28:42.131Z,13.11
2022-12-31T06:32:45.338Z,13.01
2022-12-31T06:36:48.597Z,13.03
2022-12-31T06:40:53.035Z,12.98
2022-12-31T06:44:55.806Z,12.98
2022-12-31T06:48:58.647Z,12.89
2022-12-31T06:53:01.514Z,13.09
2022-12-31T06:57:06.588Z,12.95
2022-12-31T07:01:28.949Z,12.91
2022-12-31T07:05:41.259Z,13.02
2022-12-31T07:09:48.878Z,13.06
2022-12-31T07:14:01.286Z,12.89
2022-12-31T07:18:08.687Z,13.18
2022-12-31T07:22:14.970Z,12.98
2022-12-31T07:26:24.790Z,12.96
2022-12-31T07:30:36.757Z,12.95
2022-12-31T07:34:43.508Z,12.90
2022-12-31T07:38:53.005Z,12.88
2022-12-31T07:43:06.045Z,12.88
2022-12-31T07:47:21.326Z,12.92
2022-12-31T07:51:24.875Z,12.98
2022-12-31T07:55:27.535Z,13.13
2022-12-31T07:59:42.225Z,13.20
2022-12-31T08:03:54.401Z,13.14
2022-12-31T08:08:00.733Z,13.04
2022-12-31T08:12:04.478Z,13.10
2022-12-31T08:16:11.914Z,13.10
2022-12-31T08:20:18.762Z,13.10
2022-12-31T08:24:30.041Z,13.00
2022-12-31T08:28:47.082Z,12.92
2022-12-31T08:32:56.221Z,13.01
2022-12-31T08:37:03.233Z,13.13
2022-12-31T08:41:12.875Z,13.10
2022-12-31T08:45:16.942Z,13.24
2022-12-31T08:49:20.122Z,13.23
2022-12-31T08:53:25.097Z,13.19
2022-12-31T08:57:33.814Z,13.36
2022-12-31T09:01:51.171Z,13.38
2022-12-31T09:06:00.159Z,13.31
2022-12-31T09:10:16.329Z,13.44
2022-12-31T09:14:27.129Z,13.46
2022-12-31T09:18:33.276Z,13.51
2022-12-31T09:22:36.915Z,13.58
2022-12-31T09:26:44.068Z,13.74
2022-12-31T09:30:52.680Z,13.75
2022-12-31T09:34:57.887Z,13.77
2022-12-31T09:39:05.557Z,13.82
2022-12-31T09:43:30.667Z,13.84
2022-12-31T09:48:01.027Z,13.99
2022-12-31T09:52:12.694Z,14.09
2022-12-31T09:56:19.102Z,14.19
2022-12-31T10:00:26.830Z,14.02
2022-12-31T10:04:44.778Z,14.05
2022-12-31T10:09:17.076Z,13.90
2022-12-31T10:13:34.016Z,13.77
2022-12-31T10:17:53.844Z,13.76
2022-12-31T10:22:06.364Z,13.78
2022-12-31T10:26:28.489Z,13.88
2022-12-31T10:30:35.068Z,13.81
2022-12-31T10:34:59.421Z,13.88
2022-12-31T10:39:13.532Z,13.83
2022-12-31T10:43:24.000Z,13.96
2022-12-31T10:47:54.660Z,13.94
2022-12-31T10:52:26.110Z,14.03
2022-12-31T10:56:50.223Z,14.01
2022-12-31T11:00:59.832Z,14.01
2022-12-31T11:05:13.408Z,14.12
2022-12-31T11:09:48.824Z,14.40
2022-12-31T11:14:25.986Z,14.54
2022-12-31T11:18:32.564Z,14.57
2022-12-31T11:22:48.377Z,14.48
2022-12-31T11:26:54.306Z,14.56
2022-12-31T11:31:10.614Z,14.51
2022-12-31T11:35:27.104Z,14.54
2022-12-31T11:39:48.657Z,14.64
2022-12-31T11:43:59.294Z,14.80
2022-12-31T11:52:56.259Z,14.83
2022-12-31T11:57:03.618Z,15.01
2022-12-31T12:01:11.013Z,14.84
2022-12-31T12:05:17.226Z,15.09
2022-12-31T12:09:26.604Z,15.08
2022-12-31T12:13:30.677Z,15.13
2022-12-31T12:17:34.628Z,15.11
2022-12-31T12:21:46.318Z,14.96
2022-12-31T12:25:49.271Z,14.74
2022-12-31T12:29:52.009Z,14.61
2022-12-31T12:33:54.824Z,14.48
2022-12-31T12:38:04.217Z,14.37
2022-12-31T12:42:11.153Z,14.50
2022-12-31T12:46:20.809Z,14.44
2022-12-31T12:50:25.743Z,14.41
2022-12-31T12:54:39.736Z,14.44
2022-12-31T12:58:52.343Z,14.22
2022-12-31T13:03:07.162Z,14.19
2022-12-31T13:07:20.382Z,14.10
2022-12-31T13:11:32.461Z,14.14
2022-12-31T13:15:41.011Z,14.10
2022-12-31T13:19:47.996Z,14.02
2022-12-31T13:23:53.566Z,14.01
2022-12-31T13:28:03.562Z,14.19
2022-12-31T13:32:09.113Z,14.16
2022-12-31T13:36:16.472Z,14.12
2022-12-31T13:40:23.370Z,14.11
2022-12-31T13:44:31.724Z,14.18
2022-12-31T13:48:37.880Z,14.15
2022-12-31T13:52:44.234Z,14.18
2022-12-31T13:56:48.409Z,14.16
2022-12-31T14:00:57.463Z,14.18
2022-12-31T14:05:04.664Z,14.22
2022-12-31T14:09:08.167Z,14.08
2022-12-31T14:13:34.940Z,14.01
2022-12-31T14:17:46.941Z,13.94
2022-12-31T14:21:55.886Z,13.88
2022-12-31T14:26:00.996Z,13.93
2022-12-31T14:30:06.666Z,13.76
2022-12-31T14:34:15.457Z,13.73
2022-12-31T14:38:25.206Z,13.58
2022-12-31T14:42:29.911Z,13.60
2022-12-31T14:46:37.520Z,13.44
2022-12-31T14:50:41.889Z,13.35
2022-12-31T14:54:44.676Z,13.41
2022-12-31T14:58:56.149Z,13.23
2022-12-31T15:03:00.495Z,13.09
2022-12-31T15:07:10.807Z,12.82
2022-12-31T15:11:24.133Z,12.77
2022-12-31T15:15:53.199Z,12.63
2022-12-31T15:20:31.903Z,12.61
2022-12-31T15:24:36.076Z,12.10
2022-12-31T15:28:39.933Z,12.11
2022-12-31T15:32:44.360Z,12.12
2022-12-31T15:36:53.426Z,11.98
2022-12-31T15:40:57.656Z,11.99
2022-12-31T15:45:03.553Z,11.75
2022-12-31T15:49:15.581Z,10.98
2022-12-31T15:53:28.030Z,10.86
2022-12-31T15:57:35.586Z,10.62
2022-12-31T16:01:41.516Z,10.57
2022-12-31T16:05:44.656Z,10.24
2022-12-31T16:09:51.904Z,10.30
2022-12-31T16:13:56.914Z,10.16
2022-12-31T16:18:01.789Z,10.14
2022-12-31T16:22:13.268Z,10.04
2022-12-31T16:26:16.645Z,9.78
2022-12-31T16:30:24.443Z,9.84
2022-12-31T16:34:29.355Z,9.77
2022-12-31T16:38:33.771Z,9.49
2022-12-31T16:42:44.123Z,9.45
2022-12-31T16:46:49.334Z,9.52
2022-12-31T16:50:54.821Z,9.25
2022-12-31T16:54:57.921Z,9.31
2022-12-31T16:59:02.772Z,9.29
2022-12-31T17:03:10.158Z,9.22
2022-12-31T17:07:31.959Z,9.19
2022-12-31T17:11:39.234Z,10.13
2022-12-31T17:15:44.157Z,11.19
2022-12-31T17:19:50.729Z,11.34
2022-12-31T17:23:56.067Z,11.59
2022-12-31T17:28:01.949Z,11.75
2022-12-31T17:32:06.760Z,11.68
2022-12-31T17:36:24.362Z,11.52
2022-12-31T17:40:50.513Z,11.59
2022-12-31T17:44:57.377Z,11.62
2022-12-31T17:49:03.437Z,11.34
2022-12-31T17:53:11.696Z,11.52
2022-12-31T17:57:24.251Z,11.37
2022-12-31T18:01:27.646Z,11.49
2022-12-31T18:05:30.760Z,11.46
2022-12-31T18:09:35.309Z,11.29
2022-12-31T18:13:38.564Z,11.49
2022-12-31T18:17:41.650Z,11.43
2022-12-31T18:21:45.254Z,11.25
2022-12-31T18:25:49.620Z,11.42
2022-12-31T18:29:52.508Z,11.29
2022-12-31T18:33:57.174Z,11.09
2022-12-31T18:38:00.489Z,11.28
2022-12-31T18:42:04.891Z,11.00
2022-12-31T18:46:09.911Z,10.78
2022-12-31T18:50:15.384Z,10.71
2022-12-31T18:54:18.397Z,10.63
2022-12-31T18:58:23.264Z,10.29
2022-12-31T19:02:26.016Z,9.94
2022-12-31T19:06:29.694Z,9.59
2022-12-31T19:10:32.920Z,9.39
2022-12-31T19:14:37.813Z,9.21
2022-12-31T19:18:41.100Z,9.92
2022-12-31T19:22:44.309Z,9.60
2022-12-31T19:26:48.635Z,9.57
2022-12-31T19:30:53.582Z,9.30
2022-12-31T19:34:56.420Z,9.97
2022-12-31T19:38:59.685Z,10.85
2022-12-31T19:43:02.488Z,10.90
2022-12-31T19:47:07.423Z,10.95
2022-12-31T19:51:12.487Z,11.54
2022-12-31T19:55:17.411Z,11.13
2022-12-31T19:59:20.111Z,11.14
2022-12-31T20:03:24.438Z,11.25
2022-12-31T20:07:27.484Z,11.27
2022-12-31T20:11:30.662Z,11.32
2022-12-31T20:15:34.339Z,11.29
2022-12-31T20:19:38.714Z,11.43
2022-12-31T20:23:42.056Z,11.33
2022-12-31T20:27:44.900Z,11.29
2022-12-31T20:31:47.647Z,11.25
2022-12-31T20:35:52.484Z,11.13
2022-12-31T20:39:55.734Z,10.99
2022-12-31T20:43:58.561Z,11.06
2022-12-31T20:48:01.735Z,10.69
2022-12-31T20:52:06.430Z,10.59
2022-12-31T20:56:10.472Z,10.10
2022-12-31T21:00:14.845Z,10.94
2022-12-31T21:04:18.220Z,11.20
2022-12-31T21:08:22.631Z,11.33
2022-12-31T21:12:43.046Z,11.01
2022-12-31T21:16:45.995Z,10.70
2022-12-31T21:20:49.143Z,10.69
2022-12-31T21:24:53.914Z,10.36
2022-12-31T21:28:57.185Z,9.97
2022-12-31T21:32:59.923Z,9.33
2022-12-31T21:37:02.675Z,9.71
2022-12-31T21:41:08.365Z,10.19
2022-12-31T21:45:12.273Z,10.31
2022-12-31T21:49:15.339Z,10.41
2022-12-31T21:53:23.742Z,10.44
2022-12-31T21:57:29.395Z,10.31
2022-12-31T22:01:50.026Z,10.03
2022-12-31T22:05:56.861Z,10.19
2022-12-31T22:09:59.798Z,10.25
2022-12-31T22:14:04.389Z,9.97
2022-12-31T22:18:07.146Z,10.14
2022-12-31T22:22:10.282Z,10.34
2022-12-31T22:26:15.706Z,10.52
2022-12-31T22:30:20.548Z,10.55
2022-12-31T22:34:23.336Z,10.49
2022-12-31T22:38:26.905Z,10.60
2022-12-31T22:42:29.861Z,10.53
2022-12-31T22:46:35.194Z,10.40
2022-12-31T22:50:38.567Z,10.45
2022-12-31T22:54:41.699Z,10.25
2022-12-31T22:58:44.789Z,10.15
2022-12-31T23:02:50.322Z,10.32
2022-12-31T23:06:53.260Z,9.99
2022-12-31T23:11:05.636Z,9.99
2022-12-31T23:15:28.804Z,9.97
2022-12-31T23:19:50.633Z,10.03
2022-12-31T23:23:54.566Z,10.11
2022-12-31T23:27:57.443Z,10.09
2022-12-31T23:32:01.456Z,9.84
2022-12-31T23:36:07.214Z,9.79
2022-12-31T23:40:15.750Z,8.93
2022-12-31T23:44:22.043Z,8.78
2022-12-31T23:48:24.759Z,8.22
2022-12-31T23:52:29.212Z,7.89
2022-12-31T23:56:32.347Z,7.87
